createdAt,value
2023-01-28T00:03:51.853Z,102218.56
2023-01-28T00:08:53.298Z,102213.22
2023-01-28T00:13:55.244Z,102217.72
2023-01-28T00:18:56.815Z,102217.16
2023-01-28T00:23:58.536Z,102203.16
2023-01-28T00:28:59.903Z,102206.19
2023-01-28T00:34:01.652Z,102203.72
2023-01-28T00:39:03.115Z,102201.91
2023-01-28T00:44:05.289Z,102207.03
2023-01-28T00:49:06.652Z,102207.56
2023-01-28T00:54:08.220Z,102206.88
2023-01-28T00:59:09.631Z,102219.47
2023-01-28T01:04:11.069Z,102209.81
2023-01-28T01:09:13.583Z,102198.38
2023-01-28T01:14:15.033Z,102195.81
2023-01-28T01:19:16.373Z,102207.97
2023-01-28T01:24:17.927Z,102211.72
2023-01-28T01:29:19.379Z,102213.28
2023-01-28T01:34:20.824Z,102213.19
2023-01-28T01:39:22.314Z,102212.69
2023-01-28T01:45:02.238Z,102208.03
2023-01-28T01:50:14.559Z,102205.56
2023-01-28T01:55:20.908Z,102198.88
2023-01-28T02:00:22.425Z,102211.81
2023-01-28T02:05:23.904Z,102210.97
2023-01-28T02:10:25.497Z,102206.47
2023-01-28T02:15:27.211Z,102217.28
2023-01-28T02:20:51.730Z,102214.22
2023-01-28T02:26:17.068Z,102210.88
2023-01-28T02:31:27.912Z,102212.97
2023-01-28T02:36:41.644Z,102217.06
2023-01-28T02:41:50.168Z,102226.81
2023-01-28T02:46:53.012Z,102223.84
2023-01-28T02:52:22.372Z,102233.91
2023-01-28T02:57:51.810Z,102245.44
2023-01-28T03:03:15.114Z,102245.75
2023-01-28T03:08:17.470Z,102254.69
2023-01-28T03:13:18.867Z,102257.75
2023-01-28T03:18:25.202Z,102268.94
2023-01-28T03:23:34.817Z,102263.91
2023-01-28T03:28:38.483Z,102260.25
2023-01-28T03:33:41.995Z,102263.59
2023-01-28T03:38:43.738Z,102264.97
2023-01-28T03:43:45.374Z,102257.41
2023-01-28T03:48:46.833Z,102260.13
2023-01-28T03:53:48.368Z,102259.19
2023-01-28T03:58:49.806Z,102267.19
2023-01-28T04:03:51.521Z,102268.53
2023-01-28T04:13:54.791Z,102278.63
2023-01-28T04:18:56.157Z,102281.66
2023-01-28T04:23:57.650Z,102283.13
2023-01-28T04:28:59.108Z,102289.09
2023-01-28T04:34:00.743Z,102290.97
2023-01-28T04:39:02.336Z,102298.97
2023-01-28T04:44:03.814Z,102303.38
2023-01-28T04:49:05.155Z,102304.22
2023-01-28T04:54:07.073Z,102304.84
2023-01-28T04:59:10.467Z,102312.59
2023-01-28T05:04:11.973Z,102311.03
2023-01-28T05:09:13.499Z,102303.59
2023-01-28T05:14:17.401Z,102309.16
2023-01-28T05:19:18.877Z,102296.03
2023-01-28T05:24:20.440Z,102311.03
2023-01-28T05:29:22.023Z,102309.66
2023-01-28T05:34:23.839Z,102309.66
2023-01-28T05:39:27.080Z,102304.31
2023-01-28T05:44:28.451Z,102309.47
2023-01-28T05:49:29.977Z,102318.47
2023-01-28T05:54:31.430Z,102316.06
2023-01-28T05:59:32.853Z,102323.94
2023-01-28T06:04:34.265Z,102329.19
2023-01-28T06:09:35.722Z,102337.66
2023-01-28T06:14:37.119Z,102336.63
2023-01-28T06:19:41.282Z,102334.72
2023-01-28T06:24:42.778Z,102339.25
2023-01-28T06:29:44.205Z,102343.84
2023-01-28T06:34:45.578Z,102339.16
2023-01-28T06:39:46.987Z,102351.63
2023-01-28T06:44:51.108Z,102341.56
2023-01-28T06:49:52.530Z,102338.75
2023-01-28T06:54:53.917Z,102340.72
2023-01-28T06:59:55.427Z,102345.53
2023-01-28T07:04:57.180Z,102350.16
2023-01-28T07:09:59.090Z,102358.13
2023-01-28T07:15:02.746Z,102355.69
2023-01-28T07:20:05.013Z,102355.09
2023-01-28T07:25:07.824Z,102363.81
2023-01-28T07:30:09.980Z,102363.38
2023-01-28T07:35:12.351Z,102355.41
2023-01-28T07:40:14.005Z,102355.94
2023-01-28T07:45:16.133Z,102360.56
2023-01-28T07:50:17.735Z,102352.47
2023-01-28T07:55:19.357Z,102359.63
2023-01-28T08:00:25.601Z,102357.09
2023-01-28T08:05:36.553Z,102367.91
2023-01-28T08:10:38.915Z,102371.91
2023-01-28T08:15:40.703Z,102387.53
2023-01-28T08:20:45.409Z,102393.94
2023-01-28T08:25:47.838Z,102398.47
2023-01-28T08:30:51.813Z,102399.41
2023-01-28T08:35:53.220Z,102402.34
2023-01-28T08:40:56.508Z,102408.84
2023-01-28T08:45:59.577Z,102405.16
2023-01-28T08:51:03.504Z,102417.38
2023-01-28T08:56:05.343Z,102426.06
2023-01-28T09:01:07.076Z,102419.75
2023-01-28T09:06:08.640Z,102427.03
2023-01-28T09:11:10.750Z,102431.31
2023-01-28T09:16:12.241Z,102433.94
2023-01-28T09:21:13.896Z,102449.34
2023-01-28T09:26:15.341Z,102467.22
2023-01-28T09:31:16.804Z,102466.59
2023-01-28T09:36:18.363Z,102471.84
2023-01-28T09:41:25.992Z,102478.56
2023-01-28T09:46:35.257Z,102490.84
2023-01-28T09:51:42.733Z,102492.88
2023-01-28T09:56:47.146Z,102479.72
2023-01-28T10:02:00.976Z,102488.75
2023-01-28T10:07:34.766Z,102477.09
2023-01-28T10:12:54.190Z,102490.72
2023-01-28T10:18:16.006Z,102480.81
2023-01-28T10:23:30.308Z,102490.84
2023-01-28T10:28:34.851Z,102487.44
2023-01-28T10:33:37.900Z,102490.34
2023-01-28T10:38:39.638Z,102497.31
2023-01-28T10:43:42.655Z,102487.78
2023-01-28T10:48:59.376Z,102491.94
2023-01-28T10:54:03.556Z,102492.25
2023-01-28T10:59:29.608Z,102485.72
2023-01-28T11:04:36.440Z,102488.34
2023-01-28T11:09:38.320Z,102476.47
2023-01-28T11:14:49.734Z,102485.44
2023-01-28T11:19:53.527Z,102489.25
2023-01-28T11:24:55.315Z,102493.19
2023-01-28T11:29:58.893Z,102483.28
2023-01-28T11:35:00.540Z,102480.97
2023-01-28T11:40:20.676Z,102482.91
2023-01-28T11:45:58.714Z,102500.22
2023-01-28T11:51:04.788Z,102497.91
2023-01-28T11:56:32.020Z,102486.41
2023-01-28T12:01:54.384Z,102497.06
2023-01-28T12:07:42.480Z,102484.69
2023-01-28T12:13:14.230Z,102474.09
2023-01-28T12:18:41.219Z,102473.31
2023-01-28T12:23:51.607Z,102466.66
2023-01-28T12:29:08.456Z,102472.38
2023-01-28T12:34:51.828Z,102471.81
2023-01-28T12:40:20.824Z,102477.75
2023-01-28T12:45:33.168Z,102475.72
2023-01-28T12:50:41.665Z,102466.56
2023-01-28T12:55:47.769Z,102446.03
2023-01-28T13:00:54.815Z,102446.94
2023-01-28T13:06:02.333Z,102446.66
2023-01-28T13:11:05.987Z,102430.88
2023-01-28T13:16:11.456Z,102418.72
2023-01-28T13:21:12.825Z,102414.31
2023-01-28T13:26:20.366Z,102400.47
2023-01-28T13:31:25.194Z,102374.72
2023-01-28T13:36:33.572Z,102363.38
2023-01-28T13:41:38.040Z,102349.22
2023-01-28T13:46:39.585Z,102369.72
2023-01-28T13:51:53.870Z,102408.50
2023-01-28T13:57:01.044Z,102395.88
2023-01-28T14:02:28.844Z,102405.56
2023-01-28T14:07:33.402Z,102420.44
2023-01-28T14:12:56.192Z,102413.56
2023-01-28T14:17:59.616Z,102438.25
2023-01-28T14:23:03.469Z,102446.94
2023-01-28T14:28:09.387Z,102441.06
2023-01-28T14:33:12.309Z,102433.25
2023-01-28T14:38:20.664Z,102441.50
2023-01-28T14:43:24.799Z,102439.84
2023-01-28T14:48:41.350Z,102431.84
2023-01-28T14:53:46.078Z,102426.47
2023-01-28T14:58:58.778Z,102421.53
2023-01-28T15:04:00.181Z,102416.97
2023-01-28T15:09:09.904Z,102410.50
2023-01-28T15:14:29.463Z,102392.88
2023-01-28T15:19:37.296Z,102386.03
2023-01-28T15:24:42.864Z,102399.13
2023-01-28T15:29:53.356Z,102386.34
2023-01-28T15:34:55.264Z,102395.72
2023-01-28T15:40:06.028Z,102395.88
2023-01-28T15:45:18.570Z,102402.53
2023-01-28T15:50:25.775Z,102413.91
2023-01-28T15:55:35.807Z,102407.03
2023-01-28T16:00:37.919Z,102407.25
2023-01-28T16:05:42.628Z,102406.53
2023-01-28T16:10:57.278Z,102420.91
2023-01-28T16:16:01.157Z,102433.09
2023-01-28T16:21:04.744Z,102435.47
2023-01-28T16:26:24.315Z,102445.78
2023-01-28T16:31:26.221Z,102433.16
2023-01-28T16:36:27.727Z,102463.19
2023-01-28T16:41:38.263Z,102470.72
2023-01-28T16:46:40.092Z,102497.78
2023-01-28T16:51:42.744Z,102504.19
2023-01-28T16:56:46.309Z,102504.09
2023-01-28T17:01:49.300Z,102503.66
2023-01-28T17:06:52.597Z,102508.44
2023-01-28T17:11:54.578Z,102517.13
2023-01-28T17:16:55.947Z,102525.84
2023-01-28T17:22:00.167Z,102506.41
2023-01-28T17:27:02.381Z,102504.03
2023-01-28T17:32:04.204Z,102497.31
2023-01-28T17:37:05.705Z,102492.94
2023-01-28T17:42:07.659Z,102486.38
2023-01-28T17:47:09.307Z,102477.38
2023-01-28T17:52:10.732Z,102484.94
2023-01-28T17:57:12.073Z,102475.09
2023-01-28T18:02:14.320Z,102485.88
2023-01-28T18:07:16.272Z,102488.41
2023-01-28T18:12:17.773Z,102511.94
2023-01-28T18:17:19.195Z,102540.91
2023-01-28T18:22:20.781Z,102546.44
2023-01-28T18:27:22.164Z,102543.41
2023-01-28T18:32:23.555Z,102534.50
2023-01-28T18:37:25.071Z,102545.28
2023-01-28T18:42:26.460Z,102555.06
2023-01-28T18:47:27.894Z,102562.03
2023-01-28T18:52:29.243Z,102550.25
2023-01-28T18:57:30.837Z,102544.59
2023-01-28T19:02:32.319Z,102567.50
2023-01-28T19:07:33.809Z,102562.28
2023-01-28T19:12:35.204Z,102565.38
2023-01-28T19:17:37.327Z,102554.00
2023-01-28T19:22:40.786Z,102559.84
2023-01-28T19:27:43.373Z,102569.50
2023-01-28T19:32:44.859Z,102566.63
2023-01-28T19:37:46.414Z,102565.59
2023-01-28T19:42:47.835Z,102570.63
2023-01-28T19:47:49.251Z,102570.63
2023-01-28T19:52:50.760Z,102575.31
2023-01-28T19:57:52.204Z,102568.75
2023-01-28T20:02:54.180Z,102578.41
2023-01-28T20:07:55.610Z,102580.47
2023-01-28T20:12:57.255Z,102581.50
2023-01-28T20:17:58.717Z,102584.50
2023-01-28T20:23:01.060Z,102580.28
2023-01-28T20:28:02.479Z,102569.06
2023-01-28T20:33:03.914Z,102580.59
2023-01-28T20:38:05.786Z,102576.53
2023-01-28T20:43:07.220Z,102566.16
2023-01-28T20:48:08.780Z,102562.94
2023-01-28T20:53:11.917Z,102571.75
2023-01-28T20:58:13.404Z,102564.25
2023-01-28T21:03:17.262Z,102557.25
2023-01-28T21:08:19.028Z,102544.38
2023-01-28T21:13:20.430Z,102541.28
2023-01-28T21:18:22.431Z,102540.53
2023-01-28T21:23:26.446Z,102544.06
2023-01-28T21:28:28.191Z,102540.91
2023-01-28T21:33:34.182Z,102538.31
2023-01-28T21:38:36.991Z,102524.75
2023-01-28T21:43:38.420Z,102516.44
2023-01-28T21:48:39.972Z,102518.81
2023-01-28T21:53:42.060Z,102521.78
2023-01-28T21:58:43.527Z,102515.97
2023-01-28T22:03:45.013Z,102512.53
2023-01-28T22:08:46.539Z,102523.06
2023-01-28T22:13:50.296Z,102507.25
2023-01-28T22:19:02.707Z,102504.47
2023-01-28T22:24:08.475Z,102504.47
2023-01-28T22:29:11.228Z,102514.22
2023-01-28T22:34:13.351Z,102519.00
2023-01-28T22:39:16.944Z,102520.81
2023-01-28T22:44:19.333Z,102534.03
2023-01-28T22:49:21.158Z,102543.00
2023-01-28T22:54:22.607Z,102530.53
2023-01-28T22:59:24.024Z,102540.53
2023-01-28T23:04:25.425Z,102535.19
2023-01-28T23:09:26.987Z,102543.28
2023-01-28T23:14:28.388Z,102544.47
2023-01-28T23:19:30.032Z,102543.56
2023-01-28T23:24:32.101Z,102546.28
2023-01-28T23:29:33.606Z,102539.69
2023-01-28T23:34:38.134Z,102536.44
2023-01-28T23:39:40.171Z,102531.66
2023-01-28T23:44:41.898Z,102532.38
2023-01-28T23:49:43.295Z,102528.09
2023-01-28T23:54:44.841Z,102531.19
2023-01-28T23:59:46.224Z,102515.34
